Time;durP1;ratioP1;P1;durP2;ratioP2;P2;SDS_P1;SDS_P2;PMS_P1;PMS_P2;Temp;Humidity;BMP_temperature;BMP_pressure;BME280_temperature;BME280_humidity;BME280_pressure;Samples;Min_cycle;Max_cycle;Signal;HPM_P1;HPM_P2
2022/02/21 00:01:04;;;;;;;113.65;82.55;;;;;;;3.55;100.00;101314.03;4959000;28;20047;-82
2022/02/21 00:03:31;;;;;;;104.32;74.07;;;;;;;3.61;100.00;101315.25;4967237;28;20055;-83
2022/02/21 00:05:58;;;;;;;117.35;88.60;;;;;;;3.80;100.00;101309.88;4972502;28;20113;-79
2022/02/21 00:08:24;;;;;;;116.22;90.60;;;;;;;4.00;100.00;101307.97;4965003;28;20093;-82
2022/02/21 00:10:51;;;;;;;119.70;91.63;;;;;;;3.85;100.00;101318.16;4969036;28;20047;-81
2022/02/21 00:13:18;;;;;;;96.63;83.72;;;;;;;3.59;100.00;101307.50;4971247;28;20494;-80
2022/02/21 00:15:45;;;;;;;108.35;84.00;;;;;;;3.87;100.00;101308.34;4967582;28;20047;-82
2022/02/21 00:18:13;;;;;;;97.47;80.35;;;;;;;4.01;100.00;101298.28;4968188;28;20401;-83
2022/02/21 00:20:40;;;;;;;88.03;74.38;;;;;;;3.61;100.00;101307.38;4969321;28;20052;-80
2022/02/21 00:23:08;;;;;;;90.10;72.05;;;;;;;3.70;100.00;101298.59;4960678;28;20086;-78
2022/02/21 00:25:34;;;;;;;92.22;74.30;;;;;;;4.08;100.00;101299.31;4968022;28;20470;-81
2022/02/21 00:28:01;;;;;;;87.22;77.68;;;;;;;3.84;100.00;101305.16;4968647;28;20483;-82
2022/02/21 00:30:28;;;;;;;95.53;79.70;;;;;;;4.09;100.00;101308.88;4976087;28;20122;-81
2022/02/21 00:32:55;;;;;;;93.35;73.93;;;;;;;4.01;100.00;101309.59;4967052;28;20046;-79
2022/02/21 00:35:23;;;;;;;89.00;77.85;;;;;;;4.42;100.00;101306.53;4968124;28;20050;-82
2022/02/21 00:37:50;;;;;;;94.47;69.72;;;;;;;4.41;100.00;101310.97;4963206;28;20061;-80
2022/02/21 00:40:17;;;;;;;88.05;67.30;;;;;;;4.25;100.00;101295.88;4969917;28;20051;-83
2022/02/21 00:42:44;;;;;;;87.05;74.63;;;;;;;4.38;100.00;101306.03;4965359;28;20456;-82
2022/02/21 00:45:11;;;;;;;84.70;66.00;;;;;;;4.35;100.00;101298.44;4964486;28;20468;-83
2022/02/21 00:47:39;;;;;;;78.50;57.53;;;;;;;4.41;100.00;101289.94;4969600;28;20480;-79
2022/02/21 00:50:08;;;;;;;74.28;61.08;;;;;;;4.60;100.00;101286.31;4968172;28;20480;-83
2022/02/21 00:52:36;;;;;;;75.90;58.92;;;;;;;4.69;100.00;101285.41;4968439;28;20047;-79
2022/02/21 00:55:04;;;;;;;86.35;64.13;;;;;;;4.56;100.00;101280.53;4968440;28;20106;-82
2022/02/21 00:57:31;;;;;;;80.65;65.68;;;;;;;4.54;100.00;101279.03;4968246;28;20055;-83
2022/02/21 00:59:57;;;;;;;86.38;65.35;;;;;;;4.86;100.00;101280.25;4966905;28;20538;-81
2022/02/21 01:02:24;;;;;;;105.68;69.28;;;;;;;4.88;100.00;101281.75;4969665;28;20122;-81
2022/02/21 01:04:51;;;;;;;113.28;80.32;;;;;;;4.80;100.00;101266.72;4961327;28;20047;-79
2022/02/21 01:07:17;;;;;;;98.95;81.43;;;;;;;4.91;100.00;101257.75;4969299;28;20475;-81
2022/02/21 01:09:46;;;;;;;98.13;78.03;;;;;;;4.90;100.00;101252.63;4973542;28;20464;-83
2022/02/21 01:12:14;;;;;;;86.07;63.08;;;;;;;4.83;100.00;101258.50;4971519;28;20409;-84
2022/02/21 01:14:40;;;;;;;82.72;73.85;;;;;;;4.94;100.00;101252.16;4967533;28;20484;-81
2022/02/21 01:17:07;;;;;;;107.63;88.15;;;;;;;4.69;100.00;101248.56;4967498;28;20124;-79
2022/02/21 01:19:34;;;;;;;85.55;67.78;;;;;;;4.26;100.00;101237.03;4964971;28;20062;-81
2022/02/21 01:22:03;;;;;;;90.07;73.63;;;;;;;4.47;100.00;101238.53;4973887;28;20129;-81
2022/02/21 01:24:30;;;;;;;112.97;85.90;;;;;;;4.67;100.00;101229.47;4971541;28;20403;-81
2022/02/21 01:26:58;;;;;;;86.65;75.78;;;;;;;4.53;100.00;101227.38;4964024;28;20503;-82
2022/02/21 01:29:25;;;;;;;74.35;60.38;;;;;;;3.68;100.00;101229.59;4974590;28;20051;-83
2022/02/21 01:31:53;;;;;;;80.10;71.65;;;;;;;3.69;100.00;101223.38;4966769;28;20055;-79
2022/02/21 01:34:20;;;;;;;128.18;95.75;;;;;;;3.92;100.00;101223.78;4964695;28;20061;-80
2022/02/21 01:36:47;;;;;;;84.60;75.45;;;;;;;3.57;100.00;101222.78;4967639;28;20079;-82
2022/02/21 01:39:14;;;;;;;89.03;79.72;;;;;;;3.76;100.00;101226.25;4968338;28;20055;-79
2022/02/21 01:41:41;;;;;;;92.45;83.20;;;;;;;3.26;100.00;101219.59;4966051;28;20043;-79
2022/02/21 01:44:11;;;;;;;82.22;73.97;;;;;;;3.70;100.00;101211.91;4966532;28;20130;-79
2022/02/21 01:46:40;;;;;;;78.60;69.97;;;;;;;3.51;100.00;101209.38;4960022;28;20113;-81
2022/02/21 01:49:09;;;;;;;83.25;74.38;;;;;;;3.52;100.00;101200.56;4964133;28;20114;-83
2022/02/21 01:51:38;;;;;;;75.05;64.80;;;;;;;3.54;100.00;101199.44;4966577;28;20146;-79
2022/02/21 01:54:07;;;;;;;69.13;58.05;;;;;;;3.50;100.00;101205.13;4957755;28;20527;-80
2022/02/21 01:56:35;;;;;;;74.85;66.72;;;;;;;3.29;100.00;101193.06;4971455;28;20091;-81
2022/02/21 01:59:02;;;;;;;80.18;72.32;;;;;;;3.03;100.00;101192.94;4964953;28;20391;-81
2022/02/21 02:01:30;;;;;;;83.85;75.57;;;;;;;3.12;100.00;101199.13;4970320;28;20051;-79
2022/02/21 02:03:59;;;;;;;85.93;77.40;;;;;;;3.04;100.00;101196.38;4963553;28;20106;-81
2022/02/21 02:06:27;;;;;;;85.60;77.20;;;;;;;3.01;100.00;101200.13;4965839;28;20424;-83
2022/02/21 02:08:54;;;;;;;82.28;74.20;;;;;;;3.03;100.00;101198.19;4968306;28;20118;-80
2022/02/21 02:11:21;;;;;;;94.30;84.45;;;;;;;2.80;100.00;101192.47;4968229;28;20054;-81
2022/02/21 02:13:51;;;;;;;88.40;78.82;;;;;;;3.10;100.00;101195.78;4962548;28;20070;-79
2022/02/21 02:16:19;;;;;;;79.63;71.68;;;;;;;2.76;100.00;101191.09;4969225;28;20057;-80
2022/02/21 02:18:47;;;;;;;84.97;76.85;;;;;;;2.77;100.00;101189.31;4968132;28;20413;-79
2022/02/21 02:21:20;;;;;;;76.80;68.95;;;;;;;2.56;100.00;101177.22;4958390;28;20424;-80
2022/02/21 02:23:48;;;;;;;74.30;66.43;;;;;;;2.53;100.00;101177.50;4962585;28;20097;-79
2022/02/21 02:26:18;;;;;;;71.30;63.70;;;;;;;2.52;100.00;101174.03;4963353;28;20047;-80
2022/02/21 02:28:45;;;;;;;63.88;57.53;;;;;;;2.49;100.00;101171.72;4956438;29;20511;-80
2022/02/21 02:31:12;;;;;;;62.00;55.60;;;;;;;1.64;100.00;101172.47;4959150;28;20054;-81
2022/02/21 02:33:39;;;;;;;68.68;61.85;;;;;;;2.18;100.00;101171.09;4964783;28;20463;-78
2022/02/21 02:36:07;;;;;;;76.13;68.60;;;;;;;2.18;100.00;101175.47;4966407;28;20039;-81
2022/02/21 02:38:36;;;;;;;74.68;67.28;;;;;;;2.57;100.00;101172.78;4967984;28;20051;-83
2022/02/21 02:41:06;;;;;;;67.90;61.28;;;;;;;2.45;100.00;101167.72;4964539;28;20046;-83
2022/02/21 02:43:32;;;;;;;72.32;65.82;;;;;;;2.28;100.00;101173.69;4965690;28;20051;-83
2022/02/21 02:45:59;;;;;;;73.35;66.60;;;;;;;2.22;100.00;101184.75;4965807;28;20054;-80
2022/02/21 02:48:26;;;;;;;68.20;61.53;;;;;;;1.95;100.00;101181.03;4965210;28;20054;-82
2022/02/21 02:50:53;;;;;;;81.85;72.80;;;;;;;1.73;100.00;101182.13;4967685;28;20050;-81
2022/02/21 02:53:20;;;;;;;75.18;67.43;;;;;;;1.95;100.00;101183.66;4967675;28;20043;-83
2022/02/21 02:55:47;;;;;;;68.13;60.97;;;;;;;1.78;100.00;101179.91;4961584;28;20473;-83
2022/02/21 02:58:15;;;;;;;60.22;53.92;;;;;;;1.51;100.00;101188.47;4965902;28;20615;-81
2022/02/21 03:05:46;;;;;;;83.65;65.05;;;;;;;1.21;100.00;101175.41;5006746;28;20046;-79
2022/02/21 03:08:13;;;;;;;71.72;64.80;;;;;;;0.90;100.00;101171.03;5002250;28;20050;-80
2022/02/21 03:10:40;;;;;;;80.53;69.57;;;;;;;1.05;100.00;101174.13;5004436;28;20061;-79
2022/02/21 03:13:07;;;;;;;88.45;72.05;;;;;;;1.13;100.00;101179.53;5005211;28;20041;-82
2022/02/21 03:15:36;;;;;;;92.90;63.55;;;;;;;1.48;100.00;101177.41;5006019;28;20077;-78
2022/02/21 03:18:03;;;;;;;81.80;68.18;;;;;;;1.44;100.00;101169.00;5003303;28;20100;-80
2022/02/21 03:20:29;;;;;;;71.95;64.53;;;;;;;1.62;100.00;101168.34;5010406;28;20050;-78
2022/02/21 03:22:56;;;;;;;64.40;57.35;;;;;;;1.36;100.00;101155.75;4996068;28;21327;-80
2022/02/21 03:25:23;;;;;;;69.47;62.20;;;;;;;1.18;100.00;101166.06;5004713;28;20116;-78
2022/02/21 03:27:49;;;;;;;63.33;56.97;;;;;;;1.18;100.00;101165.22;5000021;28;20077;-80
2022/02/21 03:30:16;;;;;;;64.95;57.40;;;;;;;0.89;100.00;101155.50;5008866;28;20050;-83
2022/02/21 03:32:45;;;;;;;57.45;51.58;;;;;;;0.97;100.00;101144.34;5002903;28;20054;-80
2022/02/21 03:35:13;;;;;;;64.18;57.72;;;;;;;0.63;100.00;101142.84;5006998;28;20045;-82
2022/02/21 03:37:40;;;;;;;70.53;62.97;;;;;;;1.01;100.00;101158.84;4999819;28;20050;-81
2022/02/21 03:40:09;;;;;;;66.55;59.95;;;;;;;1.12;100.00;101162.19;5007711;28;20045;-79
2022/02/21 03:42:36;;;;;;;68.13;60.88;;;;;;;0.69;100.00;101155.41;5003149;28;20112;-79
2022/02/21 03:45:06;;;;;;;70.22;62.83;;;;;;;0.42;100.00;101157.75;5010108;28;20046;-78
2022/02/21 03:47:33;;;;;;;72.80;60.15;;;;;;;0.71;100.00;101147.44;5005140;28;20577;-80
2022/02/21 03:50:02;;;;;;;71.30;63.97;;;;;;;0.36;100.00;101146.00;5005222;28;20478;-83
2022/02/21 03:52:30;;;;;;;63.33;56.60;;;;;;;0.74;100.00;101148.97;4999787;28;20124;-78
2022/02/21 03:54:57;;;;;;;65.13;58.20;;;;;;;0.65;100.00;101147.97;5001666;28;20113;-80
2022/02/21 03:57:24;;;;;;;65.80;58.83;;;;;;;0.71;100.00;101146.63;5004957;28;20057;-81
2022/02/21 03:59:50;;;;;;;57.97;51.70;;;;;;;0.35;100.00;101136.53;4999956;28;20050;-83
2022/02/21 04:02:17;;;;;;;53.47;47.40;;;;;;;0.44;100.00;101135.75;5008363;28;20441;-83
2022/02/21 04:04:44;;;;;;;63.10;53.85;;;;;;;0.08;100.00;101125.78;5030450;28;20054;-80
2022/02/21 04:07:12;;;;;;;66.07;59.30;;;;;;;0.44;100.00;101124.47;5021486;28;20045;-82
2022/02/21 04:09:39;;;;;;;70.30;58.28;;;;;;;0.54;100.00;101124.50;5022768;28;20134;-80
2022/02/21 04:12:07;;;;;;;61.90;52.78;;;;;;;0.60;100.00;101118.75;5027302;28;20119;-82
2022/02/21 04:14:34;;;;;;;67.53;60.30;;;;;;;0.31;100.00;101114.25;5024549;28;20538;-80
2022/02/21 04:17:01;;;;;;;63.15;55.45;;;;;;;0.37;100.00;101116.34;5019132;28;20139;-80
2022/02/21 04:19:28;;;;;;;64.30;54.97;;;;;;;0.30;100.00;101122.19;5024448;28;20107;-82
2022/02/21 04:21:56;;;;;;;60.00;53.40;;;;;;;0.58;100.00;101118.91;5018248;28;20129;-79
2022/02/21 04:24:24;;;;;;;68.43;60.38;;;;;;;0.30;100.00;101099.50;5022137;28;20053;-80
2022/02/21 04:26:51;;;;;;;69.03;60.22;;;;;;;0.35;100.00;101099.13;5021400;28;20096;-82
2022/02/21 04:29:19;;;;;;;57.72;51.58;;;;;;;0.36;100.00;101092.94;5028565;28;20049;-80
2022/02/21 04:31:45;;;;;;;67.68;60.33;;;;;;;0.04;100.00;101096.47;5027102;28;20080;-82
2022/02/21 04:34:12;;;;;;;72.20;61.30;;;;;;;0.06;100.00;101096.34;5022299;28;20045;-80
2022/02/21 04:36:40;;;;;;;66.95;57.55;;;;;;;0.06;100.00;101093.72;5022464;28;20516;-78
2022/02/21 04:39:06;;;;;;;64.38;54.50;;;;;;;0.05;100.00;101086.84;5023115;28;20049;-80
2022/02/21 04:41:34;;;;;;;63.85;52.38;;;;;;;-0.06;100.00;101085.97;5022710;28;20128;-80
2022/02/21 04:44:01;;;;;;;67.20;56.22;;;;;;;-0.02;100.00;101089.16;5015738;28;20452;-80
2022/02/21 04:46:28;;;;;;;57.97;51.13;;;;;;;0.22;100.00;101097.53;5024203;28;20042;-78
2022/02/21 04:48:56;;;;;;;56.08;47.03;;;;;;;-0.22;100.00;101089.97;5023016;28;20049;-83
2022/02/21 04:51:23;;;;;;;58.50;51.38;;;;;;;-0.04;100.00;101091.06;5025120;28;20124;-80
2022/02/21 04:53:50;;;;;;;57.38;50.17;;;;;;;0.10;100.00;101095.16;5032375;28;20053;-81
2022/02/21 04:56:17;;;;;;;58.70;52.47;;;;;;;-0.04;100.00;101096.28;5028349;28;20149;-81
2022/02/21 04:58:45;;;;;;;57.75;51.72;;;;;;;-0.12;100.00;101106.53;5027980;28;20049;-79
2022/02/21 05:01:12;;;;;;;59.08;52.65;;;;;;;-0.20;100.00;101101.13;5019487;28;20049;-78
2022/02/21 05:03:38;;;;;;;54.78;47.08;;;;;;;-0.62;100.00;101098.47;5025321;28;20086;-79
2022/02/21 05:06:05;;;;;;;54.92;48.35;;;;;;;-0.44;100.00;101094.34;5028282;28;20056;-83
2022/02/21 05:08:33;;;;;;;57.53;49.83;;;;;;;-0.28;100.00;101088.69;5026674;28;20451;-82
2022/02/21 05:11:00;;;;;;;57.22;49.80;;;;;;;-0.37;100.00;101085.06;5023437;28;20077;-83
2022/02/21 05:13:27;;;;;;;65.40;55.45;;;;;;;-0.43;100.00;101077.72;5030210;28;20045;-80
2022/02/21 05:15:55;;;;;;;69.00;53.47;;;;;;;-0.70;100.00;101068.59;5033526;28;20143;-79
2022/02/21 05:18:21;;;;;;;63.45;52.00;;;;;;;-0.63;100.00;101063.72;5034801;28;20102;-81
2022/02/21 05:20:48;;;;;;;67.78;56.60;;;;;;;-0.58;100.00;101051.09;5024650;28;20045;-80
2022/02/21 05:23:15;;;;;;;66.05;56.80;;;;;;;-0.41;100.00;101046.31;5018042;28;20112;-80
2022/02/21 05:25:42;;;;;;;61.22;54.47;;;;;;;-0.53;100.00;101048.13;5027040;28;20045;-78
2022/02/21 05:28:08;;;;;;;57.60;51.60;;;;;;;-0.13;100.00;101055.28;5026762;28;20462;-80
2022/02/21 05:30:35;;;;;;;66.72;50.72;;;;;;;-0.44;100.00;101051.78;5017489;28;20057;-80
2022/02/21 05:33:04;;;;;;;63.10;51.42;;;;;;;-0.27;100.00;101049.44;5022970;28;20049;-79
2022/02/21 05:35:30;;;;;;;56.58;50.15;;;;;;;0.37;100.00;101052.78;5023776;28;20119;-80
2022/02/21 05:37:57;;;;;;;61.75;54.63;;;;;;;0.87;100.00;101064.06;5023601;28;20045;-80
2022/02/21 05:40:24;;;;;;;54.97;48.65;;;;;;;1.03;100.00;101062.72;5020978;28;20054;-80
2022/02/21 05:42:50;;;;;;;57.10;51.28;;;;;;;0.99;100.00;101067.41;5025596;28;20505;-81
2022/02/21 05:45:17;;;;;;;57.53;51.88;;;;;;;1.14;100.00;101063.44;5033840;28;20053;-83
2022/02/21 05:47:44;;;;;;;60.50;53.88;;;;;;;1.37;100.00;101064.00;5024105;28;20465;-79
2022/02/21 05:50:12;;;;;;;74.70;67.38;;;;;;;1.47;100.00;101065.81;5025984;28;20049;-79
2022/02/21 05:52:39;;;;;;;73.65;66.57;;;;;;;1.52;100.00;101058.38;5024978;28;20049;-80
2022/02/21 05:55:06;;;;;;;69.00;62.03;;;;;;;1.84;100.00;101055.41;5022113;28;20477;-80
2022/02/21 05:57:33;;;;;;;74.10;66.00;;;;;;;2.19;100.00;101049.56;5021318;28;20045;-81
2022/02/21 06:00:02;;;;;;;71.78;64.95;;;;;;;2.32;100.00;101056.25;5023768;28;21287;-82
2022/02/21 06:02:29;;;;;;;64.32;58.05;;;;;;;2.48;100.00;101052.06;5020876;28;20049;-82
2022/02/21 06:04:55;;;;;;;67.05;60.33;;;;;;;2.65;100.00;101042.59;5029149;28;20045;-80
2022/02/21 06:07:23;;;;;;;93.13;81.30;;;;;;;2.05;100.00;101044.75;5026894;28;20119;-83
2022/02/21 06:09:50;;;;;;;103.65;89.85;;;;;;;2.15;100.00;101044.72;5026494;28;20497;-83
2022/02/21 06:12:17;;;;;;;93.35;82.72;;;;;;;2.54;100.00;101042.78;5021134;28;20374;-80
2022/02/21 06:14:46;;;;;;;82.32;74.07;;;;;;;2.97;100.00;101034.25;5031943;28;20049;-80
2022/02/21 06:17:15;;;;;;;100.15;89.93;;;;;;;3.57;100.00;101023.16;5029922;28;20093;-79
2022/02/21 06:19:43;;;;;;;86.68;77.63;;;;;;;3.23;100.00;101025.63;5029955;28;20509;-79
2022/02/21 06:22:10;;;;;;;93.65;83.95;;;;;;;3.40;100.00;101018.72;5031681;28;20045;-80
2022/02/21 06:24:38;;;;;;;95.35;85.50;;;;;;;3.63;100.00;101009.41;5032965;28;20058;-79
2022/02/21 06:27:05;;;;;;;88.95;79.53;;;;;;;3.55;100.00;101011.13;5027544;28;20108;-80
2022/02/21 06:29:32;;;;;;;88.30;78.85;;;;;;;3.96;100.00;101006.97;5043856;28;20076;-78
2022/02/21 06:31:59;;;;;;;96.28;86.18;;;;;;;3.98;100.00;101004.19;5037785;28;20045;-81
2022/02/21 06:34:29;;;;;;;91.72;82.53;;;;;;;4.20;100.00;101003.63;5032714;28;20054;-80
2022/02/21 06:36:56;;;;;;;81.07;72.22;;;;;;;4.43;100.00;101003.91;5033187;28;20060;-78
2022/02/21 06:39:22;;;;;;;87.78;78.88;;;;;;;4.87;100.00;101003.72;5027839;28;20050;-80
2022/02/21 06:41:52;;;;;;;81.30;73.00;;;;;;;4.71;100.00;100993.97;5041880;28;20084;-80
2022/02/21 06:44:19;;;;;;;81.28;73.28;;;;;;;4.75;100.00;100995.31;5033749;28;20050;-80
2022/02/21 06:46:46;;;;;;;83.40;74.82;;;;;;;4.94;100.00;100986.28;5024429;28;20073;-78
2022/02/21 06:49:13;;;;;;;94.00;84.85;;;;;;;5.44;100.00;100974.78;5027994;28;20046;-79
2022/02/21 06:51:40;;;;;;;85.38;77.57;;;;;;;5.33;100.00;100977.75;5033033;28;20061;-79
2022/02/21 06:54:09;;;;;;;82.05;74.53;;;;;;;5.80;100.00;100968.31;5030733;28;20115;-79
2022/02/21 06:56:36;;;;;;;75.15;68.90;;;;;;;6.03;100.00;100960.53;5035654;28;20049;-79
2022/02/21 06:59:04;;;;;;;81.13;73.25;;;;;;;6.40;100.00;100965.97;5033252;28;20045;-79
2022/02/21 07:01:31;;;;;;;83.18;76.32;;;;;;;6.36;100.00;100962.06;5029120;28;20058;-79
2022/02/21 07:03:58;;;;;;;84.88;77.45;;;;;;;6.62;100.00;100950.34;5030619;28;20045;-79
2022/02/21 07:06:25;;;;;;;89.95;81.57;;;;;;;7.13;100.00;100948.03;5028912;28;20069;-79
2022/02/21 07:08:53;;;;;;;85.22;77.53;;;;;;;7.66;100.00;100951.50;5030686;28;20134;-79
2022/02/21 07:11:20;;;;;;;81.35;74.25;;;;;;;7.55;100.00;100949.31;5040859;28;20111;-80
2022/02/21 07:13:47;;;;;;;86.30;79.00;;;;;;;8.52;100.00;100957.13;5032627;28;20056;-80
2022/02/21 07:16:15;;;;;;;84.15;76.38;;;;;;;9.02;100.00;100949.31;5030175;28;20458;-79
2022/02/21 07:18:42;;;;;;;80.10;73.72;;;;;;;9.44;100.00;100947.59;5038296;28;20087;-79
2022/02/21 07:21:09;;;;;;;71.88;66.15;;;;;;;8.94;100.00;100937.00;5041027;28;20477;-80
2022/02/21 07:23:36;;;;;;;75.15;69.05;;;;;;;8.82;100.00;100934.03;5033211;28;20053;-80
2022/02/21 07:26:04;;;;;;;66.13;61.10;;;;;;;9.31;100.00;100930.56;5032368;28;20054;-80
2022/02/21 07:28:33;;;;;;;73.07;67.28;;;;;;;9.78;100.00;100920.31;5031069;28;20053;-81
2022/02/21 07:31:00;;;;;;;68.85;63.25;;;;;;;8.56;100.00;100928.44;5039642;28;20037;-80
2022/02/21 07:33:28;;;;;;;69.10;63.47;;;;;;;9.94;100.00;100917.31;5032976;28;20053;-80
2022/02/21 07:35:56;;;;;;;72.32;66.53;;;;;;;9.73;100.00;100907.59;5038918;28;20057;-79
2022/02/21 07:38:24;;;;;;;72.05;66.40;;;;;;;10.23;100.00;100907.44;5039205;28;20085;-78
2022/02/21 07:40:51;;;;;;;75.43;69.28;;;;;;;10.71;100.00;100902.91;5030683;28;20045;-81
2022/02/21 07:43:20;;;;;;;73.75;68.25;;;;;;;10.56;100.00;100888.97;5035793;28;20108;-79
2022/02/21 07:45:47;;;;;;;75.47;69.88;;;;;;;10.30;100.00;100877.25;5024390;28;20556;-80
2022/02/21 07:48:13;;;;;;;77.38;71.55;;;;;;;11.29;100.00;100877.56;5032113;28;20068;-79
2022/02/21 07:50:42;;;;;;;75.60;69.93;;;;;;;11.12;100.00;100866.53;5041366;28;20080;-80
2022/02/21 07:53:08;;;;;;;71.10;65.80;;;;;;;11.77;100.00;100859.44;5036554;28;20085;-80
2022/02/21 07:55:35;;;;;;;70.50;65.65;;;;;;;11.50;100.00;100855.19;5031955;28;20501;-81
2022/02/21 07:58:04;;;;;;;75.75;70.20;;;;;;;11.26;100.00;100857.53;5043107;28;20053;-78
2022/02/21 08:00:31;;;;;;;77.38;71.78;;;;;;;11.45;100.00;100847.88;5043400;28;20053;-80
2022/02/21 08:02:57;;;;;;;72.72;67.78;;;;;;;10.93;100.00;100847.72;5041635;28;20056;-80
2022/02/21 08:05:24;;;;;;;62.88;58.63;;;;;;;11.17;100.00;100842.81;5032289;28;20140;-80
2022/02/21 08:07:55;;;;;;;64.35;60.13;;;;;;;11.82;100.00;100834.84;5040499;28;20045;-79
2022/02/21 08:10:23;;;;;;;68.65;63.65;;;;;;;10.46;100.00;100828.28;5035001;28;20050;-81
2022/02/21 08:12:50;;;;;;;69.20;64.70;;;;;;;10.72;100.00;100816.88;5033632;28;20493;-80
2022/02/21 08:15:17;;;;;;;70.65;66.13;;;;;;;10.30;100.00;100820.69;5034224;28;20050;-81
2022/02/21 08:17:48;;;;;;;67.55;63.25;;;;;;;11.90;100.00;100818.69;5023744;28;20080;-81
2022/02/21 08:20:16;;;;;;;66.53;61.97;;;;;;;12.39;100.00;100819.81;5029239;28;20540;-81
2022/02/21 08:22:43;;;;;;;68.93;64.45;;;;;;;11.48;100.00;100810.22;5032670;28;20120;-80
2022/02/21 08:25:12;;;;;;;67.65;63.30;;;;;;;11.63;100.00;100805.44;5037476;28;20049;-80
2022/02/21 08:27:41;;;;;;;65.03;60.72;;;;;;;11.34;100.00;100801.44;5041120;28;20107;-81
2022/02/21 08:30:10;;;;;;;73.63;68.68;;;;;;;11.67;100.00;100811.16;5034473;28;20068;-81
2022/02/21 08:32:39;;;;;;;64.20;59.50;;;;;;;11.99;100.00;100805.94;5044280;28;20049;-78
2022/02/21 08:35:07;;;;;;;72.70;67.70;;;;;;;13.03;100.00;100799.22;5034098;28;20607;-79
2022/02/21 08:37:33;;;;;;;72.15;66.95;;;;;;;12.80;100.00;100795.34;5034119;28;20054;-79
2022/02/21 08:40:00;;;;;;;74.43;69.13;;;;;;;13.49;100.00;100796.13;5039945;28;20075;-80
2022/02/21 08:42:28;;;;;;;71.55;66.65;;;;;;;14.61;100.00;100787.59;5038397;28;20476;-81
2022/02/21 08:45:03;;;;;;;66.43;61.88;;;;;;;11.93;100.00;100791.63;5029922;28;20477;-82
2022/02/21 08:47:30;;;;;;;67.43;62.58;;;;;;;13.24;100.00;100782.78;5039769;28;20080;-79
2022/02/21 08:49:57;;;;;;;77.30;72.03;;;;;;;14.71;99.35;100788.88;5042190;28;20054;-80
2022/02/21 08:52:23;;;;;;;80.60;75.40;;;;;;;13.32;95.08;100783.59;5040436;28;20065;-80
2022/02/21 08:54:50;;;;;;;76.07;71.28;;;;;;;13.54;100.00;100781.28;5039112;28;20049;-80
2022/02/21 08:57:17;;;;;;;70.35;65.70;;;;;;;15.38;92.04;100775.13;5040432;28;20053;-78
2022/02/21 08:59:46;;;;;;;71.47;66.45;;;;;;;13.57;86.57;100778.16;5035291;28;20049;-79
2022/02/21 09:02:13;;;;;;;72.93;68.13;;;;;;;14.81;91.54;100783.75;5032371;28;20116;-77
2022/02/21 09:04:40;;;;;;;70.60;66.07;;;;;;;13.23;90.17;100781.19;5046031;28;20037;-80
2022/02/21 09:07:06;;;;;;;73.65;68.82;;;;;;;13.03;94.10;100776.03;5037883;28;20042;-78
2022/02/21 09:09:33;;;;;;;69.40;64.70;;;;;;;13.01;94.75;100779.94;5039303;28;20072;-79
2022/02/21 09:12:00;;;;;;;75.30;70.38;;;;;;;14.10;98.82;100782.78;5036926;28;20050;-78
2022/02/21 09:14:28;;;;;;;79.80;74.88;;;;;;;14.37;92.07;100777.84;5042384;28;20390;-78
2022/02/21 09:16:56;;;;;;;71.78;67.18;;;;;;;13.93;92.26;100774.63;5038112;28;20046;-78
2022/02/21 09:19:29;;;;;;;65.15;60.63;;;;;;;12.50;100.00;100773.84;5040655;28;20049;-79
2022/02/21 09:21:56;;;;;;;63.00;59.00;;;;;;;13.74;99.29;100771.97;5043081;28;20454;-77
2022/02/21 09:24:23;;;;;;;65.78;61.72;;;;;;;14.12;93.49;100762.81;5040143;28;20061;-79
2022/02/21 09:26:49;;;;;;;74.20;69.22;;;;;;;13.28;97.62;100756.53;5039511;28;20065;-81
2022/02/21 09:29:16;;;;;;;71.15;66.65;;;;;;;13.09;100.00;100752.19;5038776;28;20572;-79
2022/02/21 09:31:43;;;;;;;62.83;58.63;;;;;;;12.87;97.01;100752.63;5036433;28;20081;-81
2022/02/21 09:34:12;;;;;;;62.83;58.42;;;;;;;14.84;95.90;100737.84;5029727;28;20482;-81
2022/02/21 09:36:44;;;;;;;73.25;68.65;;;;;;;13.54;88.09;100741.25;5037148;28;20050;-78
2022/02/21 09:39:21;;;;;;;75.88;71.28;;;;;;;14.56;85.09;100735.88;5032247;28;20089;-79
2022/02/21 09:41:50;;;;;;;73.55;69.00;;;;;;;14.76;86.18;100724.81;5050282;28;20053;-79
2022/02/21 09:44:17;;;;;;;67.25;62.75;;;;;;;13.79;90.78;100720.56;5042764;28;20120;-79
2022/02/21 09:46:48;;;;;;;79.38;74.38;;;;;;;16.31;76.94;100712.31;5034746;28;20077;-80
2022/02/21 09:49:17;;;;;;;87.25;82.00;;;;;;;15.51;78.98;100710.59;5036093;28;20045;-79
2022/02/21 09:51:44;;;;;;;79.97;75.18;;;;;;;15.42;76.36;100706.69;5039347;28;20069;-80
2022/02/21 09:54:12;;;;;;;69.18;64.57;;;;;;;15.34;78.55;100706.00;5039306;28;20041;-78
2022/02/21 09:56:43;;;;;;;71.65;66.85;;;;;;;17.19;79.24;100693.72;5035460;28;20069;-78
2022/02/21 09:59:18;;;;;;;66.78;62.28;;;;;;;14.62;72.87;100684.16;5028604;28;20046;-78
2022/02/21 10:01:46;;;;;;;80.70;75.95;;;;;;;15.18;81.70;100681.84;5042529;28;20046;-79
2022/02/21 10:04:13;;;;;;;80.15;75.35;;;;;;;14.44;80.17;100690.41;5046101;28;20080;-80
2022/02/21 10:06:41;;;;;;;80.25;74.75;;;;;;;14.71;78.56;100682.75;5035332;28;20085;-79
2022/02/21 10:09:25;;;;;;;71.60;66.80;;;;;;;15.88;78.67;100678.09;5034235;28;20053;-81
2022/02/21 10:12:00;;;;;;;88.60;83.00;;;;;;;16.09;69.16;100668.53;5040573;28;20088;-79
2022/02/21 10:14:30;;;;;;;82.18;77.18;;;;;;;16.05;73.05;100670.88;5030195;28;20486;-81
2022/02/21 10:16:58;;;;;;;72.00;67.40;;;;;;;14.92;75.88;100661.78;5042734;28;20049;-80
2022/02/21 10:19:36;;;;;;;73.78;68.88;;;;;;;15.98;72.28;100663.03;5045285;28;20056;-79
2022/02/21 10:22:12;;;;;;;71.32;66.63;;;;;;;16.97;71.02;100658.81;5035583;28;20494;-81
2022/02/21 10:24:41;;;;;;;77.32;72.40;;;;;;;15.96;72.41;100649.06;5038897;28;20025;-80
2022/02/21 10:27:13;;;;;;;81.40;76.40;;;;;;;17.37;72.77;100644.28;5033267;28;20041;-82
2022/02/21 10:29:49;;;;;;;81.55;76.32;;;;;;;17.88;66.86;100634.00;5045607;28;20049;-81
2022/02/21 10:32:18;;;;;;;78.00;73.00;;;;;;;17.82;67.09;100629.66;5041421;28;20123;-79
2022/02/21 10:34:46;;;;;;;86.18;81.07;;;;;;;17.16;64.71;100625.25;5041593;28;20444;-85
2022/02/21 10:37:24;;;;;;;77.63;72.90;;;;;;;17.68;66.49;100625.75;5039444;28;20065;-80
2022/02/21 10:40:04;;;;;;;71.75;67.55;;;;;;;18.10;67.14;100607.06;5039799;28;20453;-79
2022/02/21 10:42:32;;;;;;;70.15;64.95;;;;;;;18.72;64.43;100600.13;5039615;28;20385;-81
2022/02/21 10:45:10;;;;;;;70.32;65.40;;;;;;;18.35;61.21;100595.63;5032723;28;20050;-81
2022/02/21 10:47:37;;;;;;;76.90;71.70;;;;;;;18.10;64.46;100588.25;5037511;28;20053;-78
2022/02/21 10:50:05;;;;;;;76.47;71.45;;;;;;;17.62;61.44;100577.38;5037580;28;20107;-78
2022/02/21 10:52:36;;;;;;;73.28;68.38;;;;;;;18.70;66.83;100580.75;5035396;28;20468;-79
2022/02/21 10:55:05;;;;;;;75.43;70.05;;;;;;;16.22;66.95;100569.88;5030983;28;20113;-79
2022/02/21 10:57:40;;;;;;;81.97;75.45;;;;;;;14.68;71.28;100570.16;5038060;28;20081;-79
2022/02/21 11:00:11;;;;;;;81.82;75.72;;;;;;;18.65;66.98;100568.09;5029215;28;20050;-79
2022/02/21 11:02:44;;;;;;;76.93;70.70;;;;;;;21.47;58.56;100558.50;5039245;28;20096;-81
2022/02/21 11:05:12;;;;;;;74.30;68.70;;;;;;;20.02;56.91;100547.81;5039676;28;20064;-81
2022/02/21 11:07:46;;;;;;;73.38;68.05;;;;;;;19.67;62.44;100548.69;5036051;28;20119;-79
2022/02/21 11:10:25;;;;;;;80.10;74.97;;;;;;;20.60;55.37;100542.00;5028380;28;20058;-80
2022/02/21 11:12:53;;;;;;;81.05;75.35;;;;;;;18.41;59.45;100532.75;5032292;28;20062;-79
2022/02/21 11:15:28;;;;;;;81.88;75.88;;;;;;;17.22;61.79;100537.56;5036593;28;20107;-77